Terminal Aerodrome Forecast
Issued by NWS

Home | Current Version | Previous Version | Text Only | Print | Product List | Glossary Off
Versions: 1 2 3 4 5 6 7 8 9 10 11 12 13 14

000
FTUS43 KICT 191700
TAFRSL
TAF
KRSL 191735Z 1918/2018 18010KT P6SM OVC012
     FM192100 18015G21KT P6SM SCT035
     FM200200 16010KT P6SM SCT070
     FM201000 17011KT P6SM SCT015 BKN070=

USA.gov is the U.S. government's official web portal to all federal, state and local government web resources and services.